sensor_id;sensor_type;location;lat;lon;timestamp;pressure;altitude;pressure_sealevel;temperature;humidity
38466;BME280;24244;51.950;5.902;2023-12-14T00:02:13;100799.16;;;7.41;95.59
38466;BME280;24244;51.950;5.902;2023-12-14T00:04:42;100803.78;;;7.39;95.40
38466;BME280;24244;51.950;5.902;2023-12-14T00:07:09;100808.56;;;7.36;95.53
38466;BME280;24244;51.950;5.902;2023-12-14T00:09:37;100813.72;;;7.37;95.59
38466;BME280;24244;51.950;5.902;2023-12-14T00:12:04;100812.03;;;7.36;95.20
38466;BME280;24244;51.950;5.902;2023-12-14T00:14:31;100816.50;;;7.36;95.04
38466;BME280;24244;51.950;5.902;2023-12-14T00:16:58;100824.28;;;7.37;95.56
38466;BME280;24244;51.950;5.902;2023-12-14T00:19:26;100826.09;;;7.37;95.22
38466;BME280;24244;51.950;5.902;2023-12-14T00:21:54;100838.66;;;7.35;95.17
38466;BME280;24244;51.950;5.902;2023-12-14T00:24:21;100840.63;;;7.33;95.29
38466;BME280;24244;51.950;5.902;2023-12-14T00:26:48;100845.41;;;7.29;95.24
38466;BME280;24244;51.950;5.902;2023-12-14T00:29:15;100850.19;;;7.26;95.14
38466;BME280;24244;51.950;5.902;2023-12-14T00:31:42;100854.84;;;7.24;95.32
38466;BME280;24244;51.950;5.902;2023-12-14T00:34:09;100863.22;;;7.19;95.58
38466;BME280;24244;51.950;5.902;2023-12-14T00:36:36;100870.16;;;7.12;95.44
38466;BME280;24244;51.950;5.902;2023-12-14T00:39:04;100881.88;;;7.10;95.46
38466;BME280;24244;51.950;5.902;2023-12-14T00:41:31;100881.72;;;7.11;95.44
38466;BME280;24244;51.950;5.902;2023-12-14T00:43:58;100881.72;;;7.11;95.44
38466;BME280;24244;51.950;5.902;2023-12-14T00:46:25;100896.72;;;7.11;95.53
38466;BME280;24244;51.950;5.902;2023-12-14T00:48:52;100896.09;;;7.08;95.31
38466;BME280;24244;51.950;5.902;2023-12-14T00:51:19;100896.25;;;7.07;95.39
38466;BME280;24244;51.950;5.902;2023-12-14T00:53:46;100896.25;;;7.07;95.57
38466;BME280;24244;51.950;5.902;2023-12-14T00:56:14;100903.19;;;7.08;95.31
38466;BME280;24244;51.950;5.902;2023-12-14T00:58:43;100906.97;;;7.05;95.11
38466;BME280;24244;51.950;5.902;2023-12-14T01:01:10;100911.09;;;7.00;95.26
38466;BME280;24244;51.950;5.902;2023-12-14T01:03:46;100916.53;;;6.98;95.34
38466;BME280;24244;51.950;5.902;2023-12-14T01:06:13;100930.06;;;6.95;95.12
38466;BME280;24244;51.950;5.902;2023-12-14T01:08:40;100936.19;;;6.96;95.13
38466;BME280;24244;51.950;5.902;2023-12-14T01:11:07;100932.19;;;6.92;95.28
38466;BME280;24244;51.950;5.902;2023-12-14T01:13:35;100929.53;;;6.92;95.06
38466;BME280;24244;51.950;5.902;2023-12-14T01:16:03;100929.53;;;6.92;95.31
38466;BME280;24244;51.950;5.902;2023-12-14T01:18:30;100929.38;;;6.93;95.22
38466;BME280;24244;51.950;5.902;2023-12-14T01:20:58;100928.56;;;6.93;95.04
38466;BME280;24244;51.950;5.902;2023-12-14T01:23:25;100939.13;;;6.93;95.14
38466;BME280;24244;51.950;5.902;2023-12-14T01:25:53;100941.78;;;6.93;94.95
38466;BME280;24244;51.950;5.902;2023-12-14T01:28:20;100946.06;;;6.94;94.78
38466;BME280;24244;51.950;5.902;2023-12-14T01:30:49;100937.47;;;6.92;94.79
38466;BME280;24244;51.950;5.902;2023-12-14T01:33:16;100946.75;;;6.96;95.17
38466;BME280;24244;51.950;5.902;2023-12-14T01:35:43;100954.34;;;6.99;94.89
38466;BME280;24244;51.950;5.902;2023-12-14T01:38:10;100971.34;;;6.96;94.67
38466;BME280;24244;51.950;5.902;2023-12-14T01:40:37;100976.13;;;6.93;94.85
38466;BME280;24244;51.950;5.902;2023-12-14T01:43:08;100983.06;;;6.94;94.94
38466;BME280;24244;51.950;5.902;2023-12-14T01:45:36;100976.13;;;6.93;94.73
38466;BME280;24244;51.950;5.902;2023-12-14T01:48:04;100988.00;;;6.89;94.81
38466;BME280;24244;51.950;5.902;2023-12-14T01:50:32;100993.28;;;6.89;94.87
38466;BME280;24244;51.950;5.902;2023-12-14T01:52:59;100996.09;;;6.87;94.94
38466;BME280;24244;51.950;5.902;2023-12-14T01:55:26;101000.38;;;6.88;94.87
38466;BME280;24244;51.950;5.902;2023-12-14T01:57:53;101009.78;;;6.91;94.69
38466;BME280;24244;51.950;5.902;2023-12-14T02:00:26;101013.13;;;6.93;94.65
38466;BME280;24244;51.950;5.902;2023-12-14T02:02:55;101010.31;;;6.94;94.26
38466;BME280;24244;51.950;5.902;2023-12-14T02:05:23;101023.84;;;6.91;94.49
38466;BME280;24244;51.950;5.902;2023-12-14T02:07:50;101023.16;;;6.89;94.54
38466;BME280;24244;51.950;5.902;2023-12-14T02:10:17;101021.69;;;6.87;94.86
38466;BME280;24244;51.950;5.902;2023-12-14T02:12:44;101015.72;;;6.85;94.35
38466;BME280;24244;51.950;5.902;2023-12-14T02:15:11;101019.03;;;6.87;94.71
38466;BME280;24244;51.950;5.902;2023-12-14T02:17:38;101024.31;;;6.87;94.29
38466;BME280;24244;51.950;5.902;2023-12-14T02:20:06;101027.94;;;6.86;94.72
38466;BME280;24244;51.950;5.902;2023-12-14T02:22:40;101039.50;;;6.85;94.38
38466;BME280;24244;51.950;5.902;2023-12-14T02:25:14;101042.28;;;6.83;94.33
38466;BME280;24244;51.950;5.902;2023-12-14T02:27:41;101056.31;;;6.84;94.47
38466;BME280;24244;51.950;5.902;2023-12-14T02:30:09;101055.34;;;6.85;94.39
38466;BME280;24244;51.950;5.902;2023-12-14T02:32:36;101059.66;;;6.86;94.28
38466;BME280;24244;51.950;5.902;2023-12-14T02:35:04;101064.78;;;6.87;94.33
38466;BME280;24244;51.950;5.902;2023-12-14T02:37:31;101066.59;;;6.87;94.21
38466;BME280;24244;51.950;5.902;2023-12-14T02:40:00;101078.50;;;6.91;94.25
38466;BME280;24244;51.950;5.902;2023-12-14T02:42:27;101075.19;;;6.89;93.87
38466;BME280;24244;51.950;5.902;2023-12-14T02:44:54;101075.34;;;6.87;94.02
38466;BME280;24244;51.950;5.902;2023-12-14T02:47:21;101074.81;;;6.84;94.21
38466;BME280;24244;51.950;5.902;2023-12-14T02:49:48;101079.13;;;6.85;93.78
38466;BME280;24244;51.950;5.902;2023-12-14T02:52:15;101087.38;;;6.82;93.93
38466;BME280;24244;51.950;5.902;2023-12-14T02:54:42;101093.63;;;6.81;94.12
38466;BME280;24244;51.950;5.902;2023-12-14T02:57:10;101096.41;;;6.79;94.21
38466;BME280;24244;51.950;5.902;2023-12-14T02:59:37;101103.50;;;6.79;94.02
38466;BME280;24244;51.950;5.902;2023-12-14T03:02:04;101103.66;;;6.77;94.10
38466;BME280;24244;51.950;5.902;2023-12-14T03:04:31;101107.97;;;6.78;94.05
38466;BME280;24244;51.950;5.902;2023-12-14T03:06:58;101112.13;;;6.81;94.15
38466;BME280;24244;51.950;5.902;2023-12-14T03:09:30;101115.75;;;6.80;94.07
38466;BME280;24244;51.950;5.902;2023-12-14T03:11:57;101129.78;;;6.80;94.09
38466;BME280;24244;51.950;5.902;2023-12-14T03:14:31;101127.00;;;6.82;93.75
38466;BME280;24244;51.950;5.902;2023-12-14T03:16:58;101132.44;;;6.80;93.72
38466;BME280;24244;51.950;5.902;2023-12-14T03:19:25;101128.81;;;6.81;93.87
38466;BME280;24244;51.950;5.902;2023-12-14T03:21:52;101135.06;;;6.80;93.71
38466;BME280;24244;51.950;5.902;2023-12-14T03:24:19;101142.31;;;6.78;93.60
38466;BME280;24244;51.950;5.902;2023-12-14T03:26:46;101143.63;;;6.74;93.89
38466;BME280;24244;51.950;5.902;2023-12-14T03:29:13;101140.13;;;6.74;93.79
38466;BME280;24244;51.950;5.902;2023-12-14T03:31:41;101144.44;;;6.75;93.92
38466;BME280;24244;51.950;5.902;2023-12-14T03:34:08;101143.63;;;6.74;93.51
38466;BME280;24244;51.950;5.902;2023-12-14T03:36:35;101138.97;;;6.76;93.88
38466;BME280;24244;51.950;5.902;2023-12-14T03:39:02;101130.91;;;6.78;93.70
38466;BME280;24244;51.950;5.902;2023-12-14T03:41:29;101134.53;;;6.77;93.61
38466;BME280;24244;51.950;5.902;2023-12-14T03:43:56;101147.09;;;6.75;93.74
38466;BME280;24244;51.950;5.902;2023-12-14T03:46:23;101144.44;;;6.75;93.63
38466;BME280;24244;51.950;5.902;2023-12-14T03:48:51;101150.38;;;6.77;93.75
38466;BME280;24244;51.950;5.902;2023-12-14T03:51:19;101153.84;;;6.77;93.46
38466;BME280;24244;51.950;5.902;2023-12-14T03:53:46;101168.03;;;6.76;93.17
38466;BME280;24244;51.950;5.902;2023-12-14T03:56:13;101169.19;;;6.74;93.28
38466;BME280;24244;51.950;5.902;2023-12-14T03:58:40;101166.84;;;6.71;93.60
38466;BME280;24244;51.950;5.902;2023-12-14T04:01:07;101172.13;;;6.71;93.50
38466;BME280;24244;51.950;5.902;2023-12-14T04:03:34;101180.75;;;6.73;93.33
38466;BME280;24244;51.950;5.902;2023-12-14T04:06:02;101168.22;;;6.75;93.47
38466;BME280;24244;51.950;5.902;2023-12-14T04:08:30;101175.00;;;6.77;93.17
38466;BME280;24244;51.950;5.902;2023-12-14T04:10:56;101179.75;;;6.74;93.00
38466;BME280;24244;51.950;5.902;2023-12-14T04:13:23;101180.88;;;6.71;93.00
38466;BME280;24244;51.950;5.902;2023-12-14T04:15:50;101191.31;;;6.73;93.19
38466;BME280;24244;51.950;5.902;2023-12-14T04:18:17;101186.03;;;6.73;93.10
38466;BME280;24244;51.950;5.902;2023-12-14T04:20:44;101189.50;;;6.73;93.24
38466;BME280;24244;51.950;5.902;2023-12-14T04:23:12;101187.69;;;6.74;93.19
38466;BME280;24244;51.950;5.902;2023-12-14T04:25:39;101193.81;;;6.74;93.15
38466;BME280;24244;51.950;5.902;2023-12-14T04:28:06;101194.94;;;6.72;93.12
38466;BME280;24244;51.950;5.902;2023-12-14T04:30:33;101199.66;;;6.68;92.96
38466;BME280;24244;51.950;5.902;2023-12-14T04:33:00;101201.31;;;6.69;92.89
38466;BME280;24244;51.950;5.902;2023-12-14T04:35:27;101207.31;;;6.71;92.90
38466;BME280;24244;51.950;5.902;2023-12-14T04:37:54;101202.84;;;6.72;92.74
38466;BME280;24244;51.950;5.902;2023-12-14T04:40:23;101209.44;;;6.67;92.82
38466;BME280;24244;51.950;5.902;2023-12-14T04:42:50;101221.94;;;6.65;92.77
38466;BME280;24244;51.950;5.902;2023-12-14T04:45:17;101223.59;;;6.66;92.56
38466;BME280;24244;51.950;5.902;2023-12-14T04:47:45;101240.44;;;6.65;92.82
38466;BME280;24244;51.950;5.902;2023-12-14T04:50:12;101246.84;;;6.63;92.78
38466;BME280;24244;51.950;5.902;2023-12-14T04:52:41;101245.34;;;6.60;92.77
38466;BME280;24244;51.950;5.902;2023-12-14T04:55:08;101255.22;;;6.58;92.65
38466;BME280;24244;51.950;5.902;2023-12-14T04:57:36;101257.03;;;6.58;92.81
38466;BME280;24244;51.950;5.902;2023-12-14T05:00:04;101258.69;;;6.59;92.73
38466;BME280;24244;51.950;5.902;2023-12-14T05:02:32;101268.09;;;6.61;92.73
38466;BME280;24244;51.950;5.902;2023-12-14T05:04:59;101262.69;;;6.63;92.62
38466;BME280;24244;51.950;5.902;2023-12-14T05:07:26;101275.88;;;6.63;92.47
38466;BME280;24244;51.950;5.902;2023-12-14T05:09:53;101283.81;;;6.63;92.46
38466;BME280;24244;51.950;5.902;2023-12-14T05:12:20;101292.56;;;6.63;92.66
38466;BME280;24244;51.950;5.902;2023-12-14T05:14:48;101299.81;;;6.61;92.79
38466;BME280;24244;51.950;5.902;2023-12-14T05:17:15;101300.50;;;6.63;92.81
38466;BME280;24244;51.950;5.902;2023-12-14T05:19:42;101311.75;;;6.65;92.52
38466;BME280;24244;51.950;5.902;2023-12-14T05:22:09;101313.56;;;6.65;92.63
38466;BME280;24244;51.950;5.902;2023-12-14T05:24:36;101325.09;;;6.64;92.73
38466;BME280;24244;51.950;5.902;2023-12-14T05:27:03;101324.28;;;6.63;92.65
38466;BME280;24244;51.950;5.902;2023-12-14T05:29:30;101328.72;;;6.63;92.46
38466;BME280;24244;51.950;5.902;2023-12-14T05:32:01;101322.75;;;6.61;92.58
38466;BME280;24244;51.950;5.902;2023-12-14T05:34:28;101325.38;;;6.61;92.48
38466;BME280;24244;51.950;5.902;2023-12-14T05:36:56;101326.22;;;6.61;92.50
38466;BME280;24244;51.950;5.902;2023-12-14T05:39:22;101330.53;;;6.62;92.48
38466;BME280;24244;51.950;5.902;2023-12-14T05:41:49;101328.56;;;6.64;92.64
38466;BME280;24244;51.950;5.902;2023-12-14T05:44:16;101340.81;;;6.65;92.38
38466;BME280;24244;51.950;5.902;2023-12-14T05:46:43;101350.22;;;6.68;92.48
38466;BME280;24244;51.950;5.902;2023-12-14T05:49:12;101359.00;;;6.68;92.45
38466;BME280;24244;51.950;5.902;2023-12-14T05:51:38;101367.91;;;6.67;92.28
38466;BME280;24244;51.950;5.902;2023-12-14T05:54:05;101375.16;;;6.65;92.43
38466;BME280;24244;51.950;5.902;2023-12-14T05:56:33;101383.06;;;6.65;92.43
38466;BME280;24244;51.950;5.902;2023-12-14T05:59:03;101390.31;;;6.63;92.34
38466;BME280;24244;51.950;5.902;2023-12-14T06:01:29;101402.69;;;6.63;92.45
38466;BME280;24244;51.950;5.902;2023-12-14T06:03:57;101401.19;;;6.60;92.38
38466;BME280;24244;51.950;5.902;2023-12-14T06:06:25;101415.34;;;6.59;92.55
38466;BME280;24244;51.950;5.902;2023-12-14T06:08:52;101409.09;;;6.60;92.53
38466;BME280;24244;51.950;5.902;2023-12-14T06:11:19;101409.25;;;6.59;92.48
38466;BME280;24244;51.950;5.902;2023-12-14T06:13:47;101410.22;;;6.58;92.40
38466;BME280;24244;51.950;5.902;2023-12-14T06:16:14;101406.72;;;6.57;92.53
38466;BME280;24244;51.950;5.902;2023-12-14T06:18:41;101417.31;;;6.57;92.44
38466;BME280;24244;51.950;5.902;2023-12-14T06:21:11;101422.59;;;6.57;92.29
38466;BME280;24244;51.950;5.902;2023-12-14T06:23:40;101425.34;;;6.56;92.43
38466;BME280;24244;51.950;5.902;2023-12-14T06:26:07;101423.56;;;6.56;92.53
38466;BME280;24244;51.950;5.902;2023-12-14T06:28:34;101436.06;;;6.54;92.50
38466;BME280;24244;51.950;5.902;2023-12-14T06:31:01;101433.59;;;6.53;92.22
38466;BME280;24244;51.950;5.902;2023-12-14T06:33:28;101440.50;;;6.54;92.37
38466;BME280;24244;51.950;5.902;2023-12-14T06:35:56;101448.72;;;6.51;92.50
38466;BME280;24244;51.950;5.902;2023-12-14T06:38:22;101451.50;;;6.49;92.25
38466;BME280;24244;51.950;5.902;2023-12-14T06:40:51;101451.81;;;6.46;92.28
38466;BME280;24244;51.950;5.902;2023-12-14T06:43:18;101464.00;;;6.47;92.38
38466;BME280;24244;51.950;5.902;2023-12-14T06:45:45;101460.53;;;6.47;92.37
38466;BME280;24244;51.950;5.902;2023-12-14T06:48:12;101465.03;;;6.46;92.37
38466;BME280;24244;51.950;5.902;2023-12-14T06:50:39;101477.53;;;6.44;92.42
38466;BME280;24244;51.950;5.902;2023-12-14T06:53:06;101477.53;;;6.44;92.16
38466;BME280;24244;51.950;5.902;2023-12-14T06:55:33;101477.53;;;6.44;92.15
38466;BME280;24244;51.950;5.902;2023-12-14T06:58:01;101471.41;;;6.44;92.23
38466;BME280;24244;51.950;5.902;2023-12-14T07:00:29;101473.22;;;6.43;92.00
38466;BME280;24244;51.950;5.902;2023-12-14T07:02:56;101477.78;;;6.41;92.05
38466;BME280;24244;51.950;5.902;2023-12-14T07:05:23;101483.06;;;6.41;92.05
38466;BME280;24244;51.950;5.902;2023-12-14T07:07:50;101489.50;;;6.39;91.89
38466;BME280;24244;51.950;5.902;2023-12-14T07:10:17;101494.91;;;6.37;92.12
38466;BME280;24244;51.950;5.902;2023-12-14T07:12:44;101501.84;;;6.38;91.99
38466;BME280;24244;51.950;5.902;2023-12-14T07:15:13;101509.06;;;6.36;91.94
38466;BME280;24244;51.950;5.902;2023-12-14T07:17:40;101514.34;;;6.36;91.95
38466;BME280;24244;51.950;5.902;2023-12-14T07:20:08;101524.09;;;6.36;91.79
38466;BME280;24244;51.950;5.902;2023-12-14T07:22:35;101532.97;;;6.35;91.97
38466;BME280;24244;51.950;5.902;2023-12-14T07:25:03;101524.91;;;6.36;91.87
38466;BME280;24244;51.950;5.902;2023-12-14T07:27:30;101530.34;;;6.35;91.64
38466;BME280;24244;51.950;5.902;2023-12-14T07:29:57;101541.72;;;6.35;91.70
38466;BME280;24244;51.950;5.902;2023-12-14T07:32:25;101538.56;;;6.32;91.62
38466;BME280;24244;51.950;5.902;2023-12-14T07:34:53;101539.66;;;6.29;91.72
38466;BME280;24244;51.950;5.902;2023-12-14T07:37:20;101546.03;;;6.26;91.73
38466;BME280;24244;51.950;5.902;2023-12-14T07:39:47;101547.28;;;6.22;91.67
38466;BME280;24244;51.950;5.902;2023-12-14T07:42:14;101556.19;;;6.21;91.81
38466;BME280;24244;51.950;5.902;2023-12-14T07:44:46;101553.69;;;6.20;91.52
38466;BME280;24244;51.950;5.902;2023-12-14T07:47:12;101564.38;;;6.18;91.78
38466;BME280;24244;51.950;5.902;2023-12-14T07:49:42;101562.72;;;6.17;91.65
38466;BME280;24244;51.950;5.902;2023-12-14T07:52:09;101565.50;;;6.16;91.66
38466;BME280;24244;51.950;5.902;2023-12-14T07:54:36;101576.31;;;6.13;91.61
38466;BME280;24244;51.950;5.902;2023-12-14T07:57:03;101579.09;;;6.11;91.72
38466;BME280;24244;51.950;5.902;2023-12-14T07:59:30;101591.47;;;6.11;91.30
38466;BME280;24244;51.950;5.902;2023-12-14T08:01:58;101596.06;;;6.09;91.67
38466;BME280;24244;51.950;5.902;2023-12-14T08:04:25;101603.13;;;6.08;91.60
38466;BME280;24244;51.950;5.902;2023-12-14T08:06:53;101608.41;;;6.08;91.40
38466;BME280;24244;51.950;5.902;2023-12-14T08:09:20;101611.88;;;6.09;91.46
38466;BME280;24244;51.950;5.902;2023-12-14T08:11:47;101624.38;;;6.07;91.28
38466;BME280;24244;51.950;5.902;2023-12-14T08:14:14;101623.66;;;6.05;91.11
38466;BME280;24244;51.950;5.902;2023-12-14T08:16:41;101626.31;;;6.05;91.14
38466;BME280;24244;51.950;5.902;2023-12-14T08:19:08;101634.22;;;6.05;91.04
38466;BME280;24244;51.950;5.902;2023-12-14T08:21:35;101633.13;;;6.07;90.95
38466;BME280;24244;51.950;5.902;2023-12-14T08:24:04;101642.72;;;6.08;90.87
38466;BME280;24244;51.950;5.902;2023-12-14T08:26:31;101643.44;;;6.10;90.88
38466;BME280;24244;51.950;5.902;2023-12-14T08:28:58;101652.03;;;6.12;90.81
38466;BME280;24244;51.950;5.902;2023-12-14T08:31:25;101650.94;;;6.15;90.58
38466;BME280;24244;51.950;5.902;2023-12-14T08:33:53;101647.31;;;6.16;90.68
38466;BME280;24244;51.950;5.902;2023-12-14T08:36:20;101656.91;;;6.17;90.64
38466;BME280;24244;51.950;5.902;2023-12-14T08:38:47;101662.19;;;6.17;90.69
38466;BME280;24244;51.950;5.902;2023-12-14T08:41:15;101659.56;;;6.17;90.58
38466;BME280;24244;51.950;5.902;2023-12-14T08:43:43;101662.03;;;6.18;90.50
38466;BME280;24244;51.950;5.902;2023-12-14T08:46:10;101675.09;;;6.20;90.44
38466;BME280;24244;51.950;5.902;2023-12-14T08:48:37;101676.91;;;6.19;90.42
38466;BME280;24244;51.950;5.902;2023-12-14T08:51:04;101684.00;;;6.19;90.20
38466;BME280;24244;51.950;5.902;2023-12-14T08:53:31;101687.63;;;6.18;90.35
38466;BME280;24244;51.950;5.902;2023-12-14T08:55:59;101693.16;;;6.15;90.39
38466;BME280;24244;51.950;5.902;2023-12-14T08:58:27;101703.97;;;6.12;90.26
38466;BME280;24244;51.950;5.902;2023-12-14T09:00:54;101700.66;;;6.10;90.33
38466;BME280;24244;51.950;5.902;2023-12-14T09:03:21;101694.53;;;6.09;90.31
38466;BME280;24244;51.950;5.902;2023-12-14T09:05:48;101704.25;;;6.09;90.30
38466;BME280;24244;51.950;5.902;2023-12-14T09:08:16;101710.50;;;6.08;90.39
38466;BME280;24244;51.950;5.902;2023-12-14T09:10:43;101714.94;;;6.07;90.31
38466;BME280;24244;51.950;5.902;2023-12-14T09:13:11;101719.13;;;6.10;90.15
38466;BME280;24244;51.950;5.902;2023-12-14T09:15:39;101713.84;;;6.10;90.13
38466;BME280;24244;51.950;5.902;2023-12-14T09:18:06;101718.16;;;6.11;89.98
38466;BME280;24244;51.950;5.902;2023-12-14T09:20:33;101720.53;;;6.14;89.98
38466;BME280;24244;51.950;5.902;2023-12-14T09:23:02;101723.16;;;6.14;89.94
38466;BME280;24244;51.950;5.902;2023-12-14T09:25:29;101731.19;;;6.12;89.79
38466;BME280;24244;51.950;5.902;2023-12-14T09:27:56;101734.69;;;6.13;89.82
38466;BME280;24244;51.950;5.902;2023-12-14T09:30:22;101736.47;;;6.12;89.78
38466;BME280;24244;51.950;5.902;2023-12-14T09:32:51;101738.16;;;6.13;89.95
38466;BME280;24244;51.950;5.902;2023-12-14T09:35:18;101743.31;;;6.15;89.83
38466;BME280;24244;51.950;5.902;2023-12-14T09:37:45;101746.78;;;6.15;89.56
38466;BME280;24244;51.950;5.902;2023-12-14T09:40:12;101745.00;;;6.16;89.50
38466;BME280;24244;51.950;5.902;2023-12-14T09:42:39;101753.03;;;6.14;89.57
38466;BME280;24244;51.950;5.902;2023-12-14T09:45:08;101761.78;;;6.15;89.76
38466;BME280;24244;51.950;5.902;2023-12-14T09:47:36;101774.88;;;6.16;89.74
38466;BME280;24244;51.950;5.902;2023-12-14T09:50:07;101767.91;;;6.15;89.74
38466;BME280;24244;51.950;5.902;2023-12-14T09:52:34;101774.03;;;6.16;89.71
38466;BME280;24244;51.950;5.902;2023-12-14T09:55:01;101782.06;;;6.14;89.78
38466;BME280;24244;51.950;5.902;2023-12-14T09:57:30;101782.91;;;6.15;89.77
38466;BME280;24244;51.950;5.902;2023-12-14T09:59:58;101779.03;;;6.19;89.86
38466;BME280;24244;51.950;5.902;2023-12-14T10:02:26;101791.97;;;6.22;89.68
38466;BME280;24244;51.950;5.902;2023-12-14T10:04:56;101790.72;;;6.26;89.61
38466;BME280;24244;51.950;5.902;2023-12-14T10:07:25;101793.09;;;6.29;89.47
38466;BME280;24244;51.950;5.902;2023-12-14T10:09:53;101794.78;;;6.30;89.49
38466;BME280;24244;51.950;5.902;2023-12-14T10:12:20;101802.69;;;6.30;89.35
38466;BME280;24244;51.950;5.902;2023-12-14T10:15:00;101808.69;;;6.32;89.56
38466;BME280;24244;51.950;5.902;2023-12-14T10:17:27;101813.81;;;6.34;89.47
38466;BME280;24244;51.950;5.902;2023-12-14T10:20:00;101812.13;;;6.33;89.19
38466;BME280;24244;51.950;5.902;2023-12-14T10:22:32;101825.22;;;6.34;89.72
38466;BME280;24244;51.950;5.902;2023-12-14T10:24:59;101821.63;;;6.35;89.60
38466;BME280;24244;51.950;5.902;2023-12-14T10:27:27;101819.81;;;6.36;89.68
38466;BME280;24244;51.950;5.902;2023-12-14T10:29:55;101823.03;;;6.39;89.39
38466;BME280;24244;51.950;5.902;2023-12-14T10:32:23;101821.91;;;6.42;89.55
38466;BME280;24244;51.950;5.902;2023-12-14T10:34:51;101820.81;;;6.44;89.50
38466;BME280;24244;51.950;5.902;2023-12-14T10:37:18;101826.09;;;6.44;89.64
38466;BME280;24244;51.950;5.902;2023-12-14T10:39:49;101836.53;;;6.46;89.68
38466;BME280;24244;51.950;5.902;2023-12-14T10:42:18;101844.31;;;6.47;89.77
38466;BME280;24244;51.950;5.902;2023-12-14T10:44:50;101844.47;;;6.46;89.61
38466;BME280;24244;51.950;5.902;2023-12-14T10:47:21;101842.78;;;6.45;89.95
38466;BME280;24244;51.950;5.902;2023-12-14T10:49:50;101845.44;;;6.45;89.80
38466;BME280;24244;51.950;5.902;2023-12-14T10:52:18;101855.03;;;6.46;90.08
38466;BME280;24244;51.950;5.902;2023-12-14T10:54:47;101845.31;;;6.46;89.78
38466;BME280;24244;51.950;5.902;2023-12-14T10:57:17;101843.75;;;6.44;89.56
38466;BME280;24244;51.950;5.902;2023-12-14T10:59:44;101847.22;;;6.44;89.78
38466;BME280;24244;51.950;5.902;2023-12-14T11:02:17;101846.66;;;6.41;89.83
38466;BME280;24244;51.950;5.902;2023-12-14T11:04:57;101842.06;;;6.43;89.75
38466;BME280;24244;51.950;5.902;2023-12-14T11:07:49;101837.38;;;6.46;89.80
38466;BME280;24244;51.950;5.902;2023-12-14T11:10:22;101838.06;;;6.48;89.74
38466;BME280;24244;51.950;5.902;2023-12-14T11:12:55;101843.34;;;6.48;89.62
38466;BME280;24244;51.950;5.902;2023-12-14T11:15:23;101844.06;;;6.50;89.83
38466;BME280;24244;51.950;5.902;2023-12-14T11:18:20;101859.91;;;6.50;89.55
38466;BME280;24244;51.950;5.902;2023-12-14T11:20:49;101874.66;;;6.53;89.36
38466;BME280;24244;51.950;5.902;2023-12-14T11:23:18;101870.91;;;6.55;89.64
38466;BME280;24244;51.950;5.902;2023-12-14T11:25:54;101879.53;;;6.57;89.69
38466;BME280;24244;51.950;5.902;2023-12-14T11:28:27;101878.69;;;6.57;89.45
38466;BME280;24244;51.950;5.902;2023-12-14T11:30:56;101872.44;;;6.58;89.70
38466;BME280;24244;51.950;5.902;2023-12-14T11:33:24;101875.66;;;6.61;89.75
38466;BME280;24244;51.950;5.902;2023-12-14T11:35:52;101881.50;;;6.65;89.62
38466;BME280;24244;51.950;5.902;2023-12-14T11:38:20;101891.00;;;6.67;89.63
38466;BME280;24244;51.950;5.902;2023-12-14T11:40:49;101888.19;;;6.69;89.74
38466;BME280;24244;51.950;5.902;2023-12-14T11:43:17;101893.34;;;6.71;89.46
38466;BME280;24244;51.950;5.902;2023-12-14T11:45:49;101891.66;;;6.69;89.65
38466;BME280;24244;51.950;5.902;2023-12-14T11:48:16;101896.13;;;6.69;89.49
38466;BME280;24244;51.950;5.902;2023-12-14T11:50:44;101896.97;;;6.69;89.71
38466;BME280;24244;51.950;5.902;2023-12-14T11:53:11;101903.91;;;6.71;89.56
38466;BME280;24244;51.950;5.902;2023-12-14T11:55:40;101905.72;;;6.70;89.78
38466;BME280;24244;51.950;5.902;2023-12-14T11:58:09;101906.69;;;6.69;89.67
38466;BME280;24244;51.950;5.902;2023-12-14T12:00:37;101910.16;;;6.69;89.67
38466;BME280;24244;51.950;5.902;2023-12-14T12:03:12;101912.69;;;6.71;89.72
38466;BME280;24244;51.950;5.902;2023-12-14T12:05:42;101910.88;;;6.72;89.84
38466;BME280;24244;51.950;5.902;2023-12-14T12:08:10;101905.47;;;6.73;89.69
38466;BME280;24244;51.950;5.902;2023-12-14T12:10:38;101899.34;;;6.73;89.67
38466;BME280;24244;51.950;5.902;2023-12-14T12:13:07;101888.78;;;6.73;89.55
38466;BME280;24244;51.950;5.902;2023-12-14T12:15:35;101888.66;;;6.74;89.83
38466;BME280;24244;51.950;5.902;2023-12-14T12:18:05;101903.38;;;6.77;89.66
38466;BME280;24244;51.950;5.902;2023-12-14T12:20:34;101905.78;;;6.80;89.78
38466;BME280;24244;51.950;5.902;2023-12-14T12:23:04;101902.16;;;6.81;89.58
38466;BME280;24244;51.950;5.902;2023-12-14T12:25:32;101909.13;;;6.82;89.51
38466;BME280;24244;51.950;5.902;2023-12-14T12:28:00;101910.78;;;6.83;89.61
38466;BME280;24244;51.950;5.902;2023-12-14T12:30:32;101913.28;;;6.84;89.71
38466;BME280;24244;51.950;5.902;2023-12-14T12:33:00;101916.06;;;6.83;89.69
38466;BME280;24244;51.950;5.902;2023-12-14T12:35:27;101909.13;;;6.82;89.46
38466;BME280;24244;51.950;5.902;2023-12-14T12:37:58;101917.72;;;6.84;89.72
38466;BME280;24244;51.950;5.902;2023-12-14T12:40:25;101908.59;;;6.88;89.76
38466;BME280;24244;51.950;5.902;2023-12-14T12:42:53;101913.72;;;6.89;89.74
38466;BME280;24244;51.950;5.902;2023-12-14T12:45:19;101916.94;;;6.93;89.63
38466;BME280;24244;51.950;5.902;2023-12-14T12:47:52;101928.22;;;6.95;89.52
38466;BME280;24244;51.950;5.902;2023-12-14T12:50:20;101925.41;;;6.96;89.42
38466;BME280;24244;51.950;5.902;2023-12-14T12:52:49;101926.41;;;6.95;89.25
38466;BME280;24244;51.950;5.902;2023-12-14T12:55:26;101929.75;;;6.97;89.34
38466;BME280;24244;51.950;5.902;2023-12-14T12:57:53;101940.19;;;6.99;89.36
38466;BME280;24244;51.950;5.902;2023-12-14T13:00:20;101939.94;;;7.02;89.52
38466;BME280;24244;51.950;5.902;2023-12-14T13:02:50;101944.25;;;7.03;89.30
38466;BME280;24244;51.950;5.902;2023-12-14T13:05:17;101940.63;;;7.04;89.49